Time;durP1;ratioP1;P1;durP2;ratioP2;P2;SDS_P1;SDS_P2;PMS_P1;PMS_P2;Temp;Humidity;BMP_temperature;BMP_pressure;BME280_temperature;BME280_humidity;BME280_pressure;Samples;Min_cycle;Max_cycle;Signal;HPM_P1;HPM_P2
2021/12/08 00:01:55;;;;;;;14.70;7.93;;;;;;;5.13;100.00;98987.20;1531384;94;21051;-75
2021/12/08 00:04:22;;;;;;;18.73;8.30;;;;;;;5.09;100.00;98990.71;1581327;91;21559;-75
2021/12/08 00:06:50;;;;;;;15.37;8.20;;;;;;;5.05;100.00;98993.39;1582909;90;20985;-73
2021/12/08 00:09:27;;;;;;;17.47;9.00;;;;;;;5.04;100.00;98986.84;1629901;88;21042;-73
2021/12/08 00:14:33;;;;;;;15.87;9.07;;;;;;;4.99;100.00;98977.11;1606172;89;21540;-75
2021/12/08 00:17:00;;;;;;;17.53;9.53;;;;;;;4.95;100.00;98968.05;1583902;89;21045;-74
2021/12/08 00:19:28;;;;;;;16.57;8.77;;;;;;;4.93;100.00;98967.88;1606130;89;21021;-74
2021/12/08 00:21:55;;;;;;;18.20;9.37;;;;;;;4.91;100.00;98976.59;1606450;89;21073;-73
2021/12/08 00:24:22;;;;;;;18.10;9.17;;;;;;;4.87;100.00;98982.77;1605840;89;21088;-73
2021/12/08 00:26:50;;;;;;;17.03;8.70;;;;;;;4.84;100.00;98973.70;1606259;89;21021;-73
2021/12/08 00:29:17;;;;;;;16.23;8.53;;;;;;;4.82;100.00;98986.92;1606052;89;21005;-75
2021/12/08 00:31:46;;;;;;;16.50;8.57;;;;;;;4.79;100.00;98982.72;1605871;89;21041;-73
2021/12/08 00:34:13;;;;;;;15.97;8.50;;;;;;;4.74;100.00;98996.57;1605787;89;21049;-74
2021/12/08 00:39:08;;;;;;;14.17;7.70;;;;;;;4.65;100.00;98999.38;1632447;88;21426;-73
2021/12/08 00:41:35;;;;;;;17.80;8.23;;;;;;;4.62;100.00;99009.05;1600885;89;21082;-74
2021/12/08 00:44:02;;;;;;;14.23;7.70;;;;;;;4.57;100.00;99009.55;1601037;90;21552;-74
2021/12/08 00:46:29;;;;;;;15.57;8.27;;;;;;;4.54;100.00;98999.15;1601135;88;21086;-73
2021/12/08 00:48:56;;;;;;;15.27;8.03;;;;;;;4.49;100.00;98998.78;1601102;90;21054;-73
2021/12/08 00:51:23;;;;;;;14.80;7.97;;;;;;;4.46;100.00;98987.04;1601079;90;21070;-73
2021/12/08 00:53:50;;;;;;;14.70;7.80;;;;;;;4.42;100.00;98994.55;1601070;89;21058;-73
2021/12/08 00:56:17;;;;;;;16.60;8.80;;;;;;;4.38;100.00;98987.84;1601008;90;21038;-73
2021/12/08 00:58:43;;;;;;;13.33;7.87;;;;;;;4.33;100.00;98993.65;1601590;89;21634;-74
2021/12/08 01:01:10;;;;;;;14.83;8.27;;;;;;;4.31;100.00;99006.86;1601117;90;21066;-73
2021/12/08 01:03:37;;;;;;;17.00;8.80;;;;;;;4.29;100.00;99006.17;1601252;90;21006;-73
2021/12/08 01:06:05;;;;;;;14.33;8.33;;;;;;;4.24;100.00;99025.37;1601080;90;21113;-73
2021/12/08 01:08:32;;;;;;;15.63;8.70;;;;;;;4.22;100.00;99007.30;1631326;88;21535;-73
2021/12/08 01:11:03;;;;;;;15.00;8.23;;;;;;;4.17;100.00;99001.06;1634963;88;21083;-74
2021/12/08 01:13:30;;;;;;;14.97;8.57;;;;;;;4.14;100.00;99010.76;1648331;86;21025;-73
2021/12/08 01:15:58;;;;;;;14.43;7.87;;;;;;;4.12;100.00;99025.27;1635355;86;21089;-73
2021/12/08 01:18:26;;;;;;;12.83;7.40;;;;;;;4.08;100.00;99016.70;1632963;88;21026;-73
2021/12/08 01:20:54;;;;;;;14.77;8.27;;;;;;;4.05;100.00;99021.53;1632807;88;21143;-72
2021/12/08 01:23:20;;;;;;;14.53;8.00;;;;;;;4.04;100.00;99030.53;1632959;88;21030;-73
2021/12/08 01:25:47;;;;;;;13.37;7.60;;;;;;;3.99;100.00;99022.48;1632983;88;21013;-73
2021/12/08 01:28:18;;;;;;;14.17;8.10;;;;;;;3.97;100.00;99015.11;1632967;88;21037;-73
2021/12/08 01:30:43;;;;;;;15.27;9.07;;;;;;;3.95;100.00;99009.08;1632399;88;21025;-73
2021/12/08 01:33:10;;;;;;;14.03;8.63;;;;;;;3.92;100.00;99007.22;1632847;88;21033;-73
2021/12/08 01:35:37;;;;;;;15.10;8.90;;;;;;;3.87;100.00;99004.16;1632989;88;21073;-73
2021/12/08 01:38:04;;;;;;;15.33;8.83;;;;;;;3.82;100.00;99011.29;1601390;90;21087;-73
2021/12/08 01:40:31;;;;;;;14.07;7.60;;;;;;;3.79;100.00;99019.64;1601887;90;21059;-73
2021/12/08 01:43:00;;;;;;;13.50;8.43;;;;;;;3.77;100.00;99014.44;1601663;90;21406;-74
2021/12/08 01:48:17;;;;;;;13.20;8.30;;;;;;;3.73;100.00;99016.22;1633001;88;21084;-74
2021/12/08 01:50:48;;;;;;;14.37;8.03;;;;;;;3.70;100.00;99019.20;1633012;88;21081;-75
2021/12/08 01:53:15;;;;;;;13.40;8.47;;;;;;;3.68;100.00;99016.67;1610490;88;21005;-74
2021/12/08 01:55:42;;;;;;;15.00;8.97;;;;;;;3.68;100.00;99008.65;1601848;90;21606;-72
2021/12/08 01:58:09;;;;;;;16.10;9.27;;;;;;;3.66;100.00;99014.65;1632770;87;21029;-73
2021/12/08 02:00:44;;;;;;;14.83;9.33;;;;;;;3.63;100.00;99002.95;1601576;88;21032;-74
2021/12/08 02:03:11;;;;;;;13.60;8.43;;;;;;;3.62;100.00;99005.27;1565361;90;21076;-74
2021/12/08 02:05:38;;;;;;;14.00;8.40;;;;;;;3.60;100.00;98995.22;1606061;89;21617;-73
2021/12/08 02:08:05;;;;;;;15.90;9.17;;;;;;;3.57;100.00;98988.33;1606197;89;21117;-73
2021/12/08 02:10:37;;;;;;;14.70;9.00;;;;;;;3.54;100.00;98989.13;1606230;89;21622;-75
2021/12/08 02:13:05;;;;;;;14.80;8.90;;;;;;;3.51;100.00;98986.78;1590795;88;21551;-73
2021/12/08 02:15:33;;;;;;;14.03;8.67;;;;;;;3.49;100.00;98988.27;1608102;88;21632;-73
2021/12/08 02:18:01;;;;;;;14.23;8.73;;;;;;;3.49;100.00;98988.74;1634248;88;21017;-71
2021/12/08 02:20:28;;;;;;;15.03;9.30;;;;;;;3.48;100.00;98983.06;1634495;88;21096;-74
2021/12/08 02:22:55;;;;;;;17.93;9.70;;;;;;;3.46;100.00;98979.20;1634523;88;21048;-73
2021/12/08 02:25:24;;;;;;;15.50;8.57;;;;;;;3.46;100.00;98979.20;1634281;88;21010;-74
2021/12/08 02:27:51;;;;;;;17.10;9.60;;;;;;;3.46;100.00;98987.22;1634521;88;21064;-73
2021/12/08 02:30:35;;;;;;;16.53;10.00;;;;;;;3.47;100.00;98980.03;1634399;88;21060;-72
2021/12/08 02:46:49;;;;;;;16.63;9.20;;;;;;;3.51;100.00;98993.47;1634664;87;21005;-73
2021/12/08 02:49:12;;;;;;;14.90;8.90;;;;;;;3.52;100.00;98979.09;1631067;88;21029;-74
2021/12/08 02:51:40;;;;;;;15.93;9.03;;;;;;;3.53;100.00;98982.95;1633915;88;21061;-74
2021/12/08 02:54:07;;;;;;;16.23;8.90;;;;;;;3.54;100.00;98981.97;1634369;87;21510;-73
2021/12/08 02:56:34;;;;;;;17.57;9.43;;;;;;;3.55;100.00;98982.80;1634172;87;21025;-72
2021/12/08 02:59:01;;;;;;;14.87;8.67;;;;;;;3.55;100.00;98978.29;1634302;88;21026;-74
2021/12/08 03:01:29;;;;;;;15.40;8.53;;;;;;;3.57;100.00;98964.27;1633254;88;21565;-73
2021/12/08 03:03:56;;;;;;;15.80;8.90;;;;;;;3.58;100.00;98957.94;1633591;88;21022;-73
2021/12/08 03:06:22;;;;;;;18.17;10.97;;;;;;;3.59;100.00;98954.77;1633931;87;21050;-73
2021/12/08 03:08:49;;;;;;;21.53;13.20;;;;;;;3.59;100.00;98952.09;1610813;89;21017;-73
2021/12/08 03:11:18;;;;;;;19.47;10.67;;;;;;;3.61;100.00;98954.11;1611269;89;21081;-73
2021/12/08 03:14:12;;;;;;;16.73;9.30;;;;;;;3.63;100.00;98966.86;1628262;87;21099;-73
2021/12/08 03:16:42;;;;;;;;;;;;;;;3.66;100.00;98955.83;1653698;86;21073;-73
2021/12/08 03:19:09;;;;;;;16.27;8.63;;;;;;;3.67;100.00;98956.70;1662328;86;20151;-71
2021/12/08 03:21:38;;;;;;;16.23;8.50;;;;;;;3.69;100.00;98956.04;1662423;86;21033;-73
2021/12/08 03:24:27;;;;;;;15.93;8.90;;;;;;;3.71;100.00;98956.72;1662605;86;21025;-73
2021/12/08 03:27:04;;;;;;;14.13;8.37;;;;;;;3.72;100.00;98945.02;1663251;85;21100;-74
2021/12/08 03:29:28;;;;;;;17.47;9.00;;;;;;;3.74;100.00;98947.89;1663606;85;21006;-73
2021/12/08 03:31:53;;;;;;;16.47;8.80;;;;;;;3.75;100.00;98941.56;1662477;85;21077;-73
2021/12/08 03:34:24;;;;;;;18.20;9.20;;;;;;;3.76;100.00;98938.39;1662798;86;21033;-74
2021/12/08 03:36:52;;;;;;;16.83;9.10;;;;;;;3.79;100.00;98952.79;1662079;86;21052;-73
2021/12/08 03:39:19;;;;;;;16.27;9.23;;;;;;;3.83;100.00;98954.16;1662305;86;21067;-74
2021/12/08 03:41:46;;;;;;;15.73;8.30;;;;;;;3.84;100.00;98956.32;1662249;86;21057;-73
2021/12/08 03:44:13;;;;;;;17.57;9.07;;;;;;;3.86;100.00;98962.35;1662416;86;21056;-73
2021/12/08 03:46:42;;;;;;;16.07;8.27;;;;;;;3.90;100.00;98957.05;1662353;86;21076;-73
2021/12/08 03:49:13;;;;;;;15.87;8.80;;;;;;;3.91;100.00;98948.88;1662533;86;21040;-74
2021/12/08 03:51:39;;;;;;;18.70;10.07;;;;;;;3.94;100.00;98955.74;1662470;86;21029;-74
2021/12/08 03:54:07;;;;;;;18.60;8.87;;;;;;;3.96;100.00;98955.09;1662507;86;20977;-72
2021/12/08 03:56:33;;;;;;;17.57;9.43;;;;;;;3.99;100.00;98957.45;1662620;86;21025;-73
2021/12/08 03:59:00;;;;;;;17.50;8.90;;;;;;;4.01;100.00;98953.30;1662466;86;21473;-73
2021/12/08 04:01:27;;;;;;;19.00;10.13;;;;;;;4.04;100.00;98948.95;1658591;86;21542;-73
2021/12/08 04:04:00;;;;;;;17.00;8.83;;;;;;;4.05;100.00;98942.61;1653717;87;21531;-73
2021/12/08 04:06:34;;;;;;;19.30;10.90;;;;;;;4.08;100.00;98946.32;1650956;86;21069;-73
2021/12/08 04:08:57;;;;;;;17.97;9.50;;;;;;;4.09;100.00;98947.51;1634521;87;20978;-74
2021/12/08 04:11:24;;;;;;;18.10;9.20;;;;;;;4.12;100.00;98945.00;1664775;86;21544;-74
2021/12/08 04:13:57;;;;;;;19.53;9.97;;;;;;;4.13;100.00;98944.85;1668464;84;21523;-72
2021/12/08 04:16:29;;;;;;;17.90;9.78;;;;;;;4.15;100.00;98942.85;1671405;85;21077;-73
2021/12/08 04:18:57;;;;;;;18.40;10.33;;;;;;;4.17;100.00;98948.05;1670253;86;21033;-74
2021/12/08 04:21:26;;;;;;;17.93;9.77;;;;;;;4.19;100.00;98953.58;1670018;86;21041;-73
2021/12/08 04:23:53;;;;;;;17.07;8.83;;;;;;;4.21;100.00;98947.23;1670008;86;21073;-72
2021/12/08 04:26:28;;;;;;;17.90;9.07;;;;;;;4.22;100.00;98947.09;1670257;86;21562;-74
2021/12/08 04:28:55;;;;;;;18.33;9.93;;;;;;;4.24;100.00;98944.26;1630187;87;21572;-74
2021/12/08 04:31:26;;;;;;;17.67;9.27;;;;;;;4.26;100.00;98943.09;1606580;89;21492;-73
2021/12/08 04:34:00;;;;;;;16.97;9.83;;;;;;;4.28;100.00;98942.94;1604489;89;21106;-73
2021/12/08 04:36:27;;;;;;;18.93;9.80;;;;;;;4.29;100.00;98934.75;1604194;89;21083;-73
2021/12/08 04:38:58;;;;;;;20.30;11.50;;;;;;;4.32;100.00;98934.92;1604175;89;21103;-73
2021/12/08 04:41:31;;;;;;;16.50;8.73;;;;;;;4.33;100.00;98929.92;1618145;89;21035;-73
2021/12/08 04:44:26;;;;;;;18.23;9.80;;;;;;;4.35;100.00;98923.91;1618074;87;21610;-73
2021/12/08 04:47:00;;;;;;;19.67;10.57;;;;;;;4.37;100.00;98916.55;1618209;89;21079;-74
2021/12/08 04:49:53;;;;;;;18.65;10.05;;;;;;;4.39;100.00;98913.22;1589472;90;21133;-74
2021/12/08 04:52:12;;;;;;;18.03;9.50;;;;;;;4.42;100.00;98912.08;1609878;88;21086;-73
2021/12/08 05:01:11;;;;;;;19.33;10.43;;;;;;;4.46;100.00;98911.61;1581862;87;21034;-74
2021/12/08 05:03:41;;;;;;;22.02;12.60;;;;;;;4.48;100.00;98920.31;1575911;91;21064;-73
2021/12/08 05:08:40;;;;;;;19.97;10.97;;;;;;;4.53;100.00;98910.45;1560171;91;21017;-72
2021/12/08 05:10:56;;;;;;;20.13;12.13;;;;;;;4.54;100.00;98921.00;1531157;92;21100;-72
2021/12/08 05:13:23;;;;;;;19.10;10.63;;;;;;;4.55;100.00;98916.48;1550221;91;21071;-73
2021/12/08 05:15:54;;;;;;;19.20;10.17;;;;;;;4.60;100.00;98926.72;1549243;92;21062;-71
2021/12/08 05:18:29;;;;;;;17.87;9.67;;;;;;;4.62;100.00;98909.98;1563777;92;21632;-74
2021/12/08 05:21:03;;;;;;;17.63;9.00;;;;;;;4.64;100.00;98919.56;1534816;93;21551;-73
2021/12/08 05:23:35;;;;;;;15.07;8.70;;;;;;;4.66;100.00;98914.05;1534525;93;21053;-74
2021/12/08 05:26:06;;;;;;;16.37;9.40;;;;;;;4.67;100.00;98908.50;1534624;92;21146;-74
2021/12/08 05:28:34;;;;;;;16.77;9.50;;;;;;;4.69;100.00;98905.19;1531147;93;21570;-74
2021/12/08 05:31:06;;;;;;;18.53;9.83;;;;;;;4.72;100.00;98917.41;1519488;94;21239;-73
2021/12/08 05:33:33;;;;;;;19.42;10.88;;;;;;;4.74;100.00;98915.40;1530763;94;21585;-72
2021/12/08 05:36:00;;;;;;;19.70;10.70;;;;;;;4.76;100.00;98914.73;1530382;94;21165;-73
2021/12/08 05:38:27;;;;;;;19.17;9.93;;;;;;;4.79;100.00;98920.28;1530742;94;21160;-73
2021/12/08 05:41:00;;;;;;;20.60;9.87;;;;;;;4.81;100.00;98924.47;1530410;92;21076;-73
2021/12/08 05:43:27;;;;;;;16.97;9.93;;;;;;;4.84;100.00;98917.96;1485304;95;21142;-72
2021/12/08 05:45:56;;;;;;;18.57;10.43;;;;;;;4.86;100.00;98914.62;1484956;97;21101;-71
2021/12/08 05:48:23;;;;;;;16.70;9.50;;;;;;;4.87;100.00;98918.95;1485050;97;21611;-74
2021/12/08 05:50:54;;;;;;;16.97;9.70;;;;;;;4.89;100.00;98928.52;1484974;95;21264;-73
2021/12/08 05:53:22;;;;;;;18.15;10.10;;;;;;;4.91;100.00;98937.23;1485054;95;21078;-73
2021/12/08 05:55:49;;;;;;;17.67;9.43;;;;;;;4.93;100.00;98938.41;1475982;95;21216;-73
2021/12/08 05:58:17;;;;;;;17.30;9.60;;;;;;;4.94;100.00;98926.71;1490116;96;21141;-74
2021/12/08 06:00:52;;;;;;;19.00;10.53;;;;;;;4.98;100.00;98941.95;1490103;96;21112;-73
2021/12/08 06:03:19;;;;;;;18.87;10.03;;;;;;;5.00;100.00;98924.70;1490035;96;21156;-72
2021/12/08 06:05:48;;;;;;;18.40;9.80;;;;;;;5.01;100.00;98929.08;1490178;95;21121;-73
2021/12/08 06:08:16;;;;;;;17.07;9.73;;;;;;;5.03;100.00;98939.61;1489289;96;21093;-72
2021/12/08 06:10:44;;;;;;;17.53;9.53;;;;;;;5.05;100.00;98942.48;1481870;96;21124;-73
2021/12/08 06:13:13;;;;;;;17.57;9.87;;;;;;;5.08;100.00;98943.98;1468340;96;21137;-72
2021/12/08 06:15:43;;;;;;;20.40;9.87;;;;;;;5.10;100.00;98949.53;1467465;98;21151;-72
2021/12/08 06:18:10;;;;;;;20.53;10.83;;;;;;;5.13;100.00;98941.17;1511511;94;21117;-73
2021/12/08 06:20:37;;;;;;;19.33;11.63;;;;;;;5.17;100.00;98935.47;1527876;94;21093;-73
2021/12/08 06:23:06;;;;;;;21.00;11.63;;;;;;;5.18;100.00;98932.63;1528139;94;21090;-73
2021/12/08 06:25:35;;;;;;;20.13;11.37;;;;;;;5.21;100.00;98930.97;1546195;92;21066;-72
2021/12/08 06:28:03;;;;;;;19.57;10.60;;;;;;;5.24;100.00;98937.83;1558240;92;21135;-72
2021/12/08 06:30:33;;;;;;;18.10;9.93;;;;;;;5.31;100.00;98937.51;1558735;92;21129;-71
2021/12/08 06:33:00;;;;;;;20.37;11.63;;;;;;;5.35;100.00;98936.67;1558942;92;21076;-71
2021/12/08 06:35:35;;;;;;;21.37;10.77;;;;;;;5.38;100.00;98935.02;1558804;92;21081;-72
2021/12/08 06:38:01;;;;;;;24.83;12.27;;;;;;;5.41;100.00;98925.31;1501818;95;21086;-73
2021/12/08 06:40:46;;;;;;;21.03;11.13;;;;;;;5.44;100.00;98929.84;1539089;92;21068;-73
2021/12/08 06:43:16;;;;;;;22.87;11.90;;;;;;;5.46;100.00;98921.13;1563062;92;21151;-73
2021/12/08 06:45:47;;;;;;;20.83;11.70;;;;;;;5.48;100.00;98922.30;1562796;92;21120;-73
2021/12/08 06:48:19;;;;;;;20.03;11.90;;;;;;;5.49;100.00;98922.14;1562737;91;21537;-72
2021/12/08 06:50:51;;;;;;;19.67;11.73;;;;;;;5.52;100.00;98923.64;1555303;92;21078;-73
2021/12/08 06:53:18;;;;;;;22.60;12.63;;;;;;;5.54;100.00;98912.75;1513448;95;21091;-75
2021/12/08 06:55:49;;;;;;;23.90;13.13;;;;;;;5.57;100.00;98908.41;1513346;94;21591;-74
2021/12/08 06:58:20;;;;;;;22.03;12.57;;;;;;;5.58;100.00;98901.54;1513440;95;21131;-74
2021/12/08 07:01:13;;;;;;;24.80;14.10;;;;;;;5.61;100.00;98910.59;1513338;95;21640;-74
2021/12/08 07:03:44;;;;;;;20.07;10.57;;;;;;;5.65;100.00;98911.10;1515827;93;21067;-71
2021/12/08 07:06:18;;;;;;;22.63;12.83;;;;;;;5.69;100.00;98915.94;1516301;93;21095;-72
2021/12/08 07:08:47;;;;;;;24.70;15.40;;;;;;;5.74;100.00;98929.34;1498008;94;21815;-71
2021/12/08 07:11:17;;;;;;;21.60;13.17;;;;;;;5.82;100.00;98937.41;1448834;98;22052;-76
2021/12/08 07:13:45;;;;;;;25.90;16.50;;;;;;;5.87;100.00;98934.55;1440136;98;21130;-74
2021/12/08 07:16:19;;;;;;;23.13;13.40;;;;;;;5.93;100.00;98946.45;1449551;98;21109;-75
2021/12/08 07:19:03;;;;;;;22.33;12.83;;;;;;;5.98;100.00;98930.72;1458476;97;21100;-74
2021/12/08 07:21:33;;;;;;;23.27;12.87;;;;;;;6.01;100.00;98930.39;1456848;97;21143;-74
2021/12/08 07:24:14;;;;;;;19.03;11.80;;;;;;;6.04;100.00;98927.37;1419308;101;21116;-71
2021/12/08 07:26:42;;;;;;;16.93;9.30;;;;;;;6.09;100.00;98933.56;1379488;103;21122;-72
2021/12/08 07:29:12;;;;;;;16.87;9.83;;;;;;;6.13;100.00;98923.35;1379675;104;21234;-72
2021/12/08 07:31:52;;;;;;;19.03;11.07;;;;;;;6.17;100.00;98913.43;1379423;104;21139;-72
2021/12/08 07:34:21;;;;;;;18.73;9.50;;;;;;;6.20;100.00;98910.41;1369856;104;21149;-74
2021/12/08 07:36:56;;;;;;;21.23;10.37;;;;;;;6.23;100.00;98910.08;1355330;104;21248;-72
2021/12/08 07:39:29;;;;;;;19.83;10.90;;;;;;;6.27;100.00;98913.26;1350257;106;21264;-73
2021/12/08 07:42:05;;;;;;;18.37;9.43;;;;;;;6.34;100.00;98918.28;1389858;103;21632;-74
2021/12/08 07:44:32;;;;;;;21.63;11.60;;;;;;;6.43;100.00;98908.36;1387541;103;21130;-74
2021/12/08 07:47:06;;;;;;;21.30;12.27;;;;;;;6.50;100.00;98904.45;1403714;98;21079;-74
2021/12/08 07:49:41;;;;;;;24.77;12.23;;;;;;;6.60;100.00;98907.78;1450499;97;21084;-74
2021/12/08 07:52:19;;;;;;;22.83;13.10;;;;;;;6.67;100.00;98901.22;1455704;96;21671;-72
2021/12/08 07:54:47;;;;;;;23.63;10.97;;;;;;;6.72;100.00;98891.62;1436654;99;21156;-74
2021/12/08 07:57:22;;;;;;;20.67;11.23;;;;;;;6.76;100.00;98894.80;1426963;99;21126;-74
2021/12/08 07:59:51;;;;;;;24.30;12.10;;;;;;;6.77;100.00;98895.14;1427693;99;21179;-72
2021/12/08 08:02:18;;;;;;;22.27;11.77;;;;;;;6.78;100.00;98891.42;1427459;99;21088;-74
2021/12/08 08:04:47;;;;;;;21.10;11.63;;;;;;;6.79;100.00;98892.59;1428447;99;21580;-74
2021/12/08 08:07:15;;;;;;;18.60;10.43;;;;;;;6.83;100.00;98893.94;1435622;98;21595;-73
2021/12/08 08:09:44;;;;;;;19.17;10.90;;;;;;;6.88;100.00;98900.62;1425571;99;21634;-72
2021/12/08 08:12:16;;;;;;;16.83;9.40;;;;;;;6.94;100.00;98902.59;1440793;98;21147;-73
2021/12/08 08:14:51;;;;;;;16.12;9.33;;;;;;;6.96;100.00;98895.22;1449737;98;21145;-72
2021/12/08 08:17:22;;;;;;;18.42;9.28;;;;;;;6.97;100.00;98895.02;1444981;97;21149;-71
2021/12/08 08:19:48;;;;;;;19.87;10.50;;;;;;;6.95;100.00;98905.63;1404229;99;21309;-72
2021/12/08 08:22:21;;;;;;;18.47;9.07;;;;;;;6.92;100.00;98898.73;1431529;94;21109;-75
2021/12/08 08:24:48;;;;;;;20.40;10.32;;;;;;;6.92;100.00;98898.73;1501384;94;21117;-73
2021/12/08 08:27:15;;;;;;;17.60;9.40;;;;;;;6.92;100.00;98895.22;1508129;94;21075;-73
2021/12/08 08:29:42;;;;;;;21.07;10.00;;;;;;;6.92;100.00;98895.22;1503217;94;21060;-75
2021/12/08 08:32:19;;;;;;;22.47;11.40;;;;;;;6.90;100.00;98890.02;1519582;93;21244;-75
2021/12/08 08:34:44;;;;;;;22.70;11.53;;;;;;;6.94;100.00;98881.10;1533217;93;21077;-72
2021/12/08 08:37:12;;;;;;;29.13;14.07;;;;;;;6.99;100.00;98880.93;1539740;92;21617;-70
2021/12/08 08:39:45;;;;;;;21.63;11.93;;;;;;;7.06;100.00;98868.94;1507506;94;21130;-71
2021/12/08 08:42:25;;;;;;;22.05;11.33;;;;;;;7.16;100.00;98867.38;1535057;92;21087;-69
2021/12/08 08:45:04;;;;;;;35.23;19.80;;;;;;;7.24;100.00;98874.03;1554030;92;21059;-69
2021/12/08 08:47:36;;;;;;;36.37;21.63;;;;;;;7.34;100.00;98873.81;1507039;94;21068;-68
2021/12/08 08:50:06;;;;;;;52.97;31.00;;;;;;;7.41;100.00;98872.91;1537179;89;21055;-71
2021/12/08 08:52:37;;;;;;;34.17;22.70;;;;;;;7.47;100.00;98875.90;1565990;90;21058;-70
2021/12/08 08:55:15;;;;;;;34.17;20.57;;;;;;;7.52;100.00;98870.30;1561494;91;21077;-69
2021/12/08 08:57:43;;;;;;;27.77;14.50;;;;;;;7.53;100.00;98863.92;1520986;94;21162;-69
2021/12/08 09:00:18;;;;;;;22.97;11.50;;;;;;;7.51;100.00;98871.86;1518536;94;21113;-71
2021/12/08 09:02:48;;;;;;;20.53;9.47;;;;;;;7.47;100.00;98867.34;1509973;95;21073;-72
2021/12/08 09:05:22;;;;;;;19.33;9.93;;;;;;;7.43;100.00;98874.08;1498522;95;21094;-71
2021/12/08 09:07:53;;;;;;;24.30;11.23;;;;;;;7.39;100.00;98868.22;1472784;95;21631;-73
2021/12/08 09:10:25;;;;;;;24.53;12.20;;;;;;;7.36;100.00;98880.67;1490306;95;21578;-73
2021/12/08 09:13:06;;;;;;;21.37;10.83;;;;;;;7.37;100.00;98868.91;1467007;96;21111;-74
2021/12/08 09:15:39;;;;;;;32.10;16.30;;;;;;;7.41;100.00;98873.42;1501673;95;21524;-72
2021/12/08 09:18:13;;;;;;;25.57;12.77;;;;;;;7.41;100.00;98872.08;1494190;94;21164;-72
2021/12/08 09:20:57;;;;;;;45.97;25.07;;;;;;;7.39;100.00;98870.91;1444827;98;21229;-74
2021/12/08 09:23:32;;;;;;;23.73;12.93;;;;;;;7.38;100.00;98874.63;1433005;99;21150;-74
2021/12/08 09:26:05;;;;;;;30.00;15.27;;;;;;;7.38;100.00;98880.50;1420610;101;21160;-75
2021/12/08 09:28:48;;;;;;;23.63;11.43;;;;;;;7.36;100.00;98874.47;1406345;101;21675;-78
2021/12/08 09:31:24;;;;;;;23.27;11.05;;;;;;;7.33;100.00;98858.68;1395530;103;21306;-76
2021/12/08 09:34:06;;;;;;;19.77;9.50;;;;;;;7.27;100.00;98874.20;1378478;104;21218;-74
2021/12/08 09:36:39;;;;;;;19.63;7.83;;;;;;;7.22;100.00;98866.66;1377592;104;21783;-72
2021/12/08 09:39:14;;;;;;;17.10;9.27;;;;;;;7.18;100.00;98871.55;1395676;102;21211;-74
2021/12/08 09:41:47;;;;;;;23.63;12.70;;;;;;;7.17;100.00;98867.20;1400296;102;21150;-72
2021/12/08 09:44:18;;;;;;;26.42;12.78;;;;;;;7.20;100.00;98873.55;1357951;106;21209;-73
2021/12/08 09:46:47;;;;;;;17.37;8.90;;;;;;;7.27;100.00;98866.96;1347920;106;21263;-70
2021/12/08 09:49:16;;;;;;;20.83;8.93;;;;;;;7.36;100.00;98867.75;1354018;106;21353;-71
2021/12/08 09:51:44;;;;;;;19.27;9.90;;;;;;;7.38;100.00;98876.47;1354069;106;21211;-74
2021/12/08 09:54:13;;;;;;;25.90;14.23;;;;;;;7.37;100.00;98868.91;1308251;106;21237;-72
2021/12/08 09:56:40;;;;;;;21.43;10.80;;;;;;;7.36;100.00;98873.95;1318240;109;21179;-73
2021/12/08 09:59:09;;;;;;;21.37;10.43;;;;;;;7.36;100.00;98867.22;1320559;107;21168;-75
2021/12/08 10:01:39;;;;;;;20.40;8.27;;;;;;;7.37;100.00;98873.47;1341898;106;21649;-76
2021/12/08 10:04:05;;;;;;;20.33;10.70;;;;;;;7.37;100.00;98866.22;1343460;105;21671;-78
2021/12/08 10:06:33;;;;;;;29.67;14.63;;;;;;;7.39;100.00;98866.05;1353579;105;21178;-75
2021/12/08 10:09:00;;;;;;;25.83;13.77;;;;;;;7.43;100.00;98859.80;1396166;102;21080;-77
2021/12/08 10:11:29;;;;;;;26.80;14.03;;;;;;;7.47;100.00;98861.97;1384412;102;21108;-78
2021/12/08 10:13:57;;;;;;;22.87;9.77;;;;;;;7.54;100.00;98854.84;1380100;102;21127;-75
2021/12/08 10:16:24;;;;;;;27.27;14.47;;;;;;;7.66;100.00;98851.20;1397027;101;21167;-78
2021/12/08 10:18:53;;;;;;;28.13;15.77;;;;;;;7.82;100.00;98858.28;1411839;100;21309;-75
2021/12/08 10:21:20;;;;;;;29.47;17.20;;;;;;;7.94;100.00;98844.72;1456755;94;21151;-80
2021/12/08 10:23:48;;;;;;;25.80;13.83;;;;;;;8.04;100.00;98846.30;1499295;94;21155;-77
2021/12/08 10:26:19;;;;;;;19.87;10.83;;;;;;;8.09;100.00;98846.09;1467127;96;21062;-76
2021/12/08 10:28:54;;;;;;;22.50;13.37;;;;;;;8.14;100.00;98840.14;1436101;99;21679;-74
2021/12/08 10:31:34;;;;;;;25.50;11.47;;;;;;;8.14;100.00;98845.04;1491941;95;21145;-76
2021/12/08 10:37:01;;;;;;;22.27;11.67;;;;;;;8.14;100.00;98830.23;1549358;91;21111;-77
2021/12/08 10:39:48;;;;;;;14.97;8.23;;;;;;;8.10;100.00;98824.04;1557474;91;21159;-76
2021/12/08 10:42:27;;;;;;;18.03;9.10;;;;;;;8.06;100.00;98833.52;1603033;87;21059;-75
2021/12/08 10:45:11;;;;;;;19.57;9.77;;;;;;;8.01;100.00;98830.02;1603140;89;21513;-78
2021/12/08 10:47:47;;;;;;;21.80;8.17;;;;;;;8.01;100.00;98825.16;1585208;90;21107;-78
2021/12/08 10:56:05;;;;;;;23.40;10.73;;;;;;;8.05;100.00;98811.13;1610987;89;21064;-75
2021/12/08 10:58:34;;;;;;;24.27;11.83;;;;;;;8.04;100.00;98810.81;1611049;89;21097;-76
2021/12/08 11:01:18;;;;;;;31.00;14.73;;;;;;;8.06;100.00;98826.27;1610754;87;21657;-75
2021/12/08 11:03:46;;;;;;;56.77;13.47;;;;;;;8.09;100.00;98816.97;1578027;90;21089;-75
2021/12/08 11:06:15;;;;;;;23.07;10.30;;;;;;;8.13;100.00;98815.60;1575147;90;21513;-76
2021/12/08 11:08:47;;;;;;;39.93;12.90;;;;;;;8.17;100.00;98832.53;1608761;87;21092;-77
2021/12/08 11:11:31;;;;;;;90.20;19.13;;;;;;;8.16;100.00;98820.10;1615786;88;21114;-75
2021/12/08 11:14:01;;;;;;;34.38;13.30;;;;;;;8.15;100.00;98817.08;1610465;89;21571;-74
2021/12/08 11:16:33;;;;;;;31.67;12.53;;;;;;;8.14;100.00;98819.95;1611649;87;21141;-73
2021/12/08 11:19:06;;;;;;;33.83;10.97;;;;;;;8.12;100.00;98815.27;1621209;87;21033;-77
2021/12/08 11:21:37;;;;;;;32.97;10.70;;;;;;;8.10;100.00;98810.58;1619138;87;21112;-76
2021/12/08 11:24:13;;;;;;;37.07;12.17;;;;;;;8.05;100.00;98805.73;1612152;87;21039;-76
2021/12/08 11:26:46;;;;;;;33.57;12.13;;;;;;;7.99;100.00;98801.11;1634312;87;21535;-78
2021/12/08 11:29:22;;;;;;;21.20;8.33;;;;;;;7.95;100.00;98810.06;1643327;86;21513;-74
2021/12/08 11:32:01;;;;;;;31.67;10.90;;;;;;;7.94;100.00;98808.89;1674059;85;20978;-77
2021/12/08 11:34:43;;;;;;;85.37;18.83;;;;;;;7.93;100.00;98802.69;1672401;85;21099;-75
2021/12/08 11:37:16;;;;;;;89.40;21.63;;;;;;;7.95;100.00;98804.68;1654254;86;21118;-74
2021/12/08 11:39:48;;;;;;;35.93;13.10;;;;;;;7.98;100.00;98803.46;1590356;89;21105;-73
2021/12/08 11:42:17;;;;;;;46.37;12.97;;;;;;;7.99;100.00;98802.45;1594294;90;21629;-75
2021/12/08 11:44:47;;;;;;;26.60;11.13;;;;;;;8.07;100.00;98801.52;1593968;90;21103;-79
2021/12/08 11:47:25;;;;;;;21.43;10.67;;;;;;;8.12;100.00;98793.72;1593787;88;21586;-74
2021/12/08 11:49:57;;;;;;;28.20;9.77;;;;;;;8.13;100.00;98790.02;1583209;89;21097;-76
2021/12/08 11:52:32;;;;;;;17.47;8.23;;;;;;;8.18;100.00;98784.92;1589895;90;21084;-75
2021/12/08 11:55:09;;;;;;;19.43;8.60;;;;;;;8.22;100.00;98784.86;1558549;90;21618;-74
2021/12/08 11:57:44;;;;;;;20.60;9.17;;;;;;;8.24;100.00;98794.93;1512270;94;21151;-75
2021/12/08 12:00:20;;;;;;;21.03;10.00;;;;;;;8.24;100.00;98792.76;1519386;94;21544;-74
2021/12/08 12:02:57;;;;;;;25.40;9.60;;;;;;;8.21;100.00;98796.64;1477618;96;21080;-72
2021/12/08 12:05:28;;;;;;;21.60;9.80;;;;;;;8.18;100.00;98792.48;1495267;95;21798;-73
2021/12/08 12:07:55;;;;;;;17.17;8.77;;;;;;;8.16;100.00;98795.88;1496179;95;21149;-74
2021/12/08 12:10:27;;;;;;;23.50;10.60;;;;;;;8.14;100.00;98795.23;1475754;96;21175;-73
2021/12/08 12:12:54;;;;;;;23.13;11.57;;;;;;;8.14;100.00;98803.30;1472343;96;21092;-75
2021/12/08 12:15:23;;;;;;;20.70;10.00;;;;;;;8.13;100.00;98798.09;1472341;97;21088;-72
2021/12/08 12:17:51;;;;;;;21.00;10.67;;;;;;;8.13;100.00;98802.14;1469876;97;21143;-76